Time;durP1;ratioP1;P1;durP2;ratioP2;P2;SDS_P1;SDS_P2;PMS_P1;PMS_P2;Temp;Humidity;BMP_temperature;BMP_pressure;BME280_temperature;BME280_humidity;BME280_pressure;Samples;Min_cycle;Max_cycle;Signal;HPM_P1;HPM_P2
2023/03/29 00:01:57;;;;;;;2.25;1.20;;;5.30;99.90;;;4.52;100.00;97592.88;4982017;28;20064;-38
2023/03/29 00:04:26;;;;;;;1.85;1.40;;;5.30;99.90;;;4.52;100.00;97595.50;4996192;28;20049;-38
2023/03/29 00:06:53;;;;;;;1.67;1.35;;;5.30;99.90;;;4.36;100.00;97566.03;4992321;28;20025;-39
2023/03/29 00:09:19;;;;;;;2.00;1.55;;;5.30;99.90;;;4.53;100.00;97599.84;4995913;28;20054;-39
2023/03/29 00:11:45;;;;;;;2.20;1.58;;;5.30;99.90;;;4.52;100.00;97590.28;4996740;28;20029;-38
2023/03/29 00:14:12;;;;;;;2.60;1.30;;;5.30;99.90;;;4.52;100.00;97585.94;4994747;28;20060;-38
2023/03/29 00:16:38;;;;;;;3.45;1.60;;;5.30;99.90;;;4.54;100.00;97592.00;4985911;28;20798;-39
2023/03/29 00:19:04;;;;;;;2.70;1.55;;;5.30;99.90;;;4.53;100.00;97584.19;4996522;28;20034;-39
2023/03/29 00:21:30;;;;;;;3.13;1.65;;;5.30;99.90;;;4.51;100.00;97567.66;4997132;28;20106;-38
2023/03/29 00:23:56;;;;;;;3.30;1.73;;;5.20;99.90;;;4.47;100.00;97573.78;5013791;28;20025;-39
2023/03/29 00:26:22;;;;;;;2.97;1.65;;;5.20;99.90;;;4.52;100.00;97574.59;5006475;28;20128;-38
2023/03/29 00:28:48;;;;;;;3.28;1.70;;;5.20;99.90;;;4.49;100.00;97566.81;4999630;28;20036;-38
2023/03/29 00:31:16;;;;;;;3.20;1.70;;;5.30;99.90;;;4.52;100.00;97562.44;4990759;28;20029;-39
2023/03/29 00:33:43;;;;;;;2.30;1.70;;;5.30;99.90;;;4.47;100.00;97573.78;4988135;28;20047;-38
2023/03/29 00:36:11;;;;;;;3.53;1.77;;;5.30;99.90;;;4.46;100.00;97566.84;4977785;28;20077;-38
2023/03/29 00:38:38;;;;;;;2.35;1.73;;;5.30;99.90;;;4.36;100.00;97555.59;5010276;28;20036;-39
2023/03/29 00:41:05;;;;;;;2.88;1.90;;;5.20;99.90;;;4.44;100.00;97559.03;5013168;28;20108;-38
2023/03/29 00:43:57;;;;;;;3.13;1.63;;;5.20;99.90;;;4.47;100.00;97560.72;5004022;28;20164;-38
2023/03/29 00:46:26;;;;;;;2.15;1.60;;;5.20;99.90;;;4.52;100.00;97554.59;5003526;28;20048;-38
2023/03/29 00:48:54;;;;;;;2.55;1.65;;;5.30;99.90;;;4.52;100.00;97549.38;5004284;28;20409;-38
2023/03/29 00:51:25;;;;;;;2.58;1.55;;;5.30;99.90;;;4.53;100.00;97548.47;4999978;28;20033;-38
2023/03/29 00:53:57;;;;;;;4.07;2.00;;;5.30;99.90;;;4.49;100.00;97556.38;4975733;28;20037;-38
2023/03/29 00:56:36;;;;;;;3.20;2.03;;;5.30;99.90;;;4.50;100.00;97547.63;4988569;28;20285;-38
2023/03/29 00:59:13;;;;;;;5.80;1.92;;;5.30;99.90;;;4.53;100.00;97550.22;4991798;28;20065;-39
2023/03/29 01:01:53;;;;;;;2.70;1.58;;;5.30;99.90;;;4.53;100.00;97542.38;4995856;28;20056;-38
2023/03/29 01:04:28;;;;;;;3.05;1.92;;;5.20;99.90;;;4.54;100.00;97538.88;5001619;28;20124;-39
2023/03/29 01:07:16;;;;;;;2.22;1.50;;;5.30;99.90;;;4.54;100.00;97541.50;4996946;28;20131;-38
2023/03/29 01:09:45;;;;;;;2.63;1.60;;;5.30;99.90;;;4.54;100.00;97537.16;4998708;28;20056;-38
2023/03/29 01:12:17;;;;;;;3.50;1.75;;;5.30;99.90;;;4.53;100.00;97527.56;5003197;28;20037;-38
2023/03/29 01:15:00;;;;;;;4.82;2.00;;;5.30;99.90;;;4.53;100.00;97516.28;4969294;28;20037;-38
2023/03/29 01:17:26;;;;;;;2.58;1.52;;;5.30;99.90;;;4.56;100.00;97508.41;4996252;28;20075;-38
2023/03/29 01:20:06;;;;;;;2.90;1.80;;;5.30;99.90;;;4.57;100.00;97510.13;4995258;28;20492;-38
2023/03/29 01:23:12;;;;;;;2.38;1.90;;;5.30;99.90;;;4.58;100.00;97509.25;5000232;28;20048;-39
2023/03/29 01:26:38;;;;;;;4.05;2.00;;;5.30;99.90;;;4.58;100.00;97517.09;5004445;28;20541;-39
2023/03/29 01:29:27;;;;;;;4.20;1.77;;;5.30;99.90;;;4.56;100.00;97506.66;5012508;28;20036;-38
2023/03/29 01:32:18;;;;;;;2.47;1.75;;;5.30;99.90;;;4.54;100.00;97510.16;4999995;28;21750;-38
2023/03/29 01:34:59;;;;;;;3.25;1.88;;;5.30;99.90;;;4.52;100.00;97496.25;4993340;28;20025;-38
2023/03/29 01:37:42;;;;;;;5.25;1.88;;;5.30;99.90;;;4.50;100.00;97490.19;5005172;28;20025;-38
2023/03/29 01:40:09;;;;;;;2.90;1.92;;;5.30;99.90;;;4.49;100.00;97481.50;4981054;28;20037;-38
2023/03/29 01:43:13;;;;;;;4.15;1.73;;;5.30;99.90;;;4.48;100.00;97484.13;4987961;28;20417;-38
2023/03/29 01:45:49;;;;;;;2.83;1.85;;;5.30;99.90;;;4.48;100.00;97478.88;5000699;28;20561;-38
2023/03/29 01:48:55;;;;;;;1.92;1.25;;;5.30;99.90;;;4.49;100.00;97467.56;4992952;28;20034;-38
2023/03/29 01:51:36;;;;;;;2.42;1.70;;;5.30;99.90;;;4.50;100.00;97466.69;4990946;28;20302;-38
2023/03/29 01:54:09;;;;;;;4.38;1.65;;;5.30;99.90;;;4.48;100.00;97460.59;5006357;28;21963;-38
2023/03/29 01:56:39;;;;;;;2.70;1.52;;;5.20;99.90;;;4.44;100.00;97453.69;4990949;28;20441;-38
2023/03/29 01:59:17;;;;;;;3.70;1.90;;;5.20;99.90;;;4.40;100.00;97442.44;4989285;28;20120;-39
2023/03/29 02:01:55;;;;;;;5.15;1.80;;;5.10;99.90;;;4.37;100.00;97437.22;4998778;28;20389;-38
2023/03/29 02:04:30;;;;;;;2.10;1.65;;;5.10;99.90;;;4.29;100.00;97433.84;5004039;28;20053;-38
2023/03/29 02:06:58;;;;;;;3.13;1.95;;;5.10;99.90;;;4.24;100.00;97431.28;4986023;28;20041;-38
2023/03/29 02:09:24;;;;;;;3.13;1.90;;;5.00;99.90;;;4.19;100.00;97413.06;5003773;28;20030;-38
2023/03/29 02:11:51;;;;;;;3.03;1.75;;;5.00;99.90;;;4.24;100.00;97414.78;5001044;28;20040;-39
2023/03/29 02:14:18;;;;;;;3.13;1.70;;;5.00;99.90;;;4.22;100.00;97417.41;5001742;28;20034;-38
2023/03/29 02:16:45;;;;;;;2.85;1.90;;;5.00;99.90;;;4.22;100.00;97417.41;5000006;28;20037;-39
2023/03/29 02:19:18;;;;;;;3.65;1.98;;;5.00;99.90;;;4.20;100.00;97424.38;5019062;22;20568;-48
2023/03/29 02:22:02;;;;;;;5.50;1.83;;;5.00;99.90;;;4.21;100.00;97421.72;4997995;28;20034;-48
2023/03/29 02:24:33;;;;;;;2.80;1.80;;;5.00;99.90;;;4.23;100.00;97421.72;4988701;28;20064;-48
2023/03/29 02:27:00;;;;;;;2.85;1.73;;;5.00;99.90;;;4.24;100.00;97425.22;4984977;28;20160;-49
2023/03/29 02:29:26;;;;;;;2.20;1.70;;;5.00;99.90;;;4.26;100.00;97431.28;5005778;28;20075;-49
2023/03/29 02:32:05;;;;;;;2.78;1.90;;;5.00;99.90;;;4.29;100.00;97426.88;4986280;28;20390;-49
2023/03/29 02:35:05;;;;;;;2.88;1.80;;;5.10;99.90;;;4.33;100.00;97420.75;5009399;28;20488;-47
2023/03/29 02:37:33;;;;;;;3.25;1.80;;;5.10;99.90;;;4.28;100.00;97419.06;4978742;28;20539;-47
2023/03/29 02:40:00;;;;;;;2.85;1.77;;;5.10;99.90;;;4.30;100.00;97425.13;4997955;28;20029;-50
2023/03/29 02:42:27;;;;;;;2.53;1.70;;;5.10;99.90;;;4.26;100.00;97405.19;4994502;28;20607;-48
2023/03/29 02:44:57;;;;;;;3.15;1.77;;;5.10;99.90;;;4.30;100.00;97414.69;4988693;28;20022;-47
2023/03/29 02:47:36;;;;;;;2.60;1.92;;;5.00;99.90;;;4.26;100.00;97407.78;4989847;28;20025;-47
2023/03/29 02:50:01;;;;;;;4.65;2.00;;;5.00;99.90;;;4.25;100.00;97400.81;4986497;28;20025;-50
2023/03/29 02:52:38;;;;;;;5.70;1.98;;;4.90;99.90;;;4.11;100.00;97386.19;5001007;28;20044;-47
2023/03/29 02:55:13;;;;;;;2.63;1.70;;;4.90;99.90;;;4.00;100.00;97378.50;4986156;28;20800;-52
2023/03/29 02:57:42;;;;;;;2.72;1.73;;;4.70;99.90;;;3.86;100.00;97371.66;4985783;28;20171;-48
2023/03/29 03:00:10;;;;;;;2.80;1.77;;;4.70;99.90;;;3.75;100.00;97374.41;5003289;28;20025;-47
2023/03/29 03:02:37;;;;;;;4.75;2.15;;;4.50;99.90;;;3.61;100.00;97357.16;4982302;28;20540;-48
2023/03/29 03:05:04;;;;;;;6.47;2.20;;;4.40;99.90;;;3.49;100.00;97354.66;5000694;28;20565;-47
2023/03/29 03:07:30;;;;;;;2.60;1.58;;;4.40;99.90;;;3.45;100.00;97352.97;5005981;28;20025;-46
2023/03/29 03:09:56;;;;;;;3.45;1.65;;;4.30;99.90;;;3.36;100.00;97347.84;5003118;28;20067;-48
2023/03/29 03:12:22;;;;;;;3.20;2.03;;;4.20;99.90;;;3.16;100.00;97333.25;5003904;28;20021;-47
2023/03/29 03:14:48;;;;;;;2.85;1.85;;;4.10;99.90;;;3.27;100.00;97366.16;5002781;28;20071;-46
2023/03/29 03:17:14;;;;;;;2.88;2.00;;;4.00;99.90;;;3.25;100.00;97364.44;4996225;28;20037;-51
2023/03/29 03:19:39;;;;;;;2.88;1.80;;;4.00;99.90;;;3.29;100.00;97369.63;5000512;28;20500;-47
2023/03/29 03:22:06;;;;;;;2.53;1.80;;;4.00;99.90;;;3.21;100.00;97365.34;5000217;28;20021;-48
2023/03/29 03:24:32;;;;;;;3.70;2.10;;;4.10;99.90;;;3.35;100.00;97369.56;4998676;28;20041;-49
2023/03/29 03:26:58;;;;;;;2.55;1.80;;;4.20;99.90;;;3.50;100.00;97373.78;4980749;28;20107;-46
2023/03/29 03:29:24;;;;;;;3.22;1.88;;;4.30;99.90;;;3.61;100.00;97371.94;5008688;28;20625;-47
2023/03/29 03:31:51;;;;;;;1.95;1.67;;;4.40;99.90;;;3.74;100.00;97372.69;4984837;28;20017;-49
2023/03/29 03:34:18;;;;;;;4.43;2.35;;;4.50;99.90;;;3.86;100.00;97376.88;5004306;28;20061;-51
2023/03/29 03:36:46;;;;;;;3.53;2.10;;;4.60;99.90;;;3.95;100.00;97362.00;5002006;28;20029;-48
2023/03/29 03:39:13;;;;;;;4.70;2.00;;;4.80;99.90;;;4.07;100.00;97362.75;5007711;28;20088;-49
2023/03/29 03:41:39;;;;;;;2.92;2.10;;;4.80;99.90;;;4.17;100.00;97361.75;5001625;28;20056;-50
2023/03/29 03:44:05;;;;;;;2.42;1.50;;;4.90;99.90;;;4.22;100.00;97352.13;5002541;28;20111;-47
2023/03/29 03:46:31;;;;;;;5.30;1.70;;;5.00;99.90;;;4.34;100.00;97361.53;5005709;28;20063;-47
2023/03/29 03:48:58;;;;;;;2.03;1.50;;;5.10;99.90;;;4.42;100.00;97354.47;5003859;28;20041;-48
2023/03/29 03:51:24;;;;;;;2.22;1.40;;;5.20;99.90;;;4.52;100.00;97368.28;5007286;28;20314;-48
2023/03/29 03:53:49;;;;;;;1.77;1.38;;;5.30;99.90;;;4.56;100.00;97364.75;5002410;28;20120;-48
2023/03/29 03:56:15;;;;;;;2.05;1.20;;;5.30;99.90;;;4.66;100.00;97366.34;5005261;28;20037;-50
2023/03/29 03:58:41;;;;;;;1.92;1.30;;;5.40;99.90;;;4.72;100.00;97371.50;5003091;28;20160;-48
2023/03/29 04:01:10;;;;;;;1.83;1.00;;;5.50;99.90;;;4.80;100.00;97373.13;5001116;28;20037;-48
2023/03/29 04:03:36;;;;;;;2.28;1.10;;;5.50;99.90;;;4.83;100.00;97367.84;4998632;28;20033;-51
2023/03/29 04:06:03;;;;;;;1.60;1.05;;;5.60;99.90;;;4.87;100.00;97372.16;4998993;28;20030;-50
2023/03/29 04:08:29;;;;;;;1.63;1.23;;;5.60;99.90;;;4.93;100.00;97382.50;4999671;28;20029;-48
2023/03/29 04:10:57;;;;;;;1.35;1.00;;;5.70;99.90;;;4.99;100.00;97382.44;4991509;28;20037;-50
2023/03/29 04:13:24;;;;;;;1.98;1.30;;;5.70;99.90;;;5.00;100.00;97389.38;5003331;28;20090;-49
2023/03/29 04:15:52;;;;;;;1.65;1.20;;;5.70;99.90;;;5.06;100.00;97376.22;4992120;28;20041;-49
2023/03/29 04:18:20;;;;;;;3.03;1.58;;;5.80;99.90;;;5.13;100.00;97369.13;4999373;28;20026;-48
2023/03/29 04:20:46;;;;;;;2.38;1.40;;;5.90;99.90;;;5.24;100.00;97377.69;4996738;28;20586;-51
2023/03/29 04:23:13;;;;;;;3.35;1.45;;;5.90;99.90;;;5.32;100.00;97383.63;5002390;28;20044;-48
2023/03/29 04:25:39;;;;;;;2.45;1.40;;;6.00;99.90;;;5.31;100.00;97370.56;4998912;28;20041;-51
2023/03/29 04:28:06;;;;;;;2.22;1.50;;;6.10;99.90;;;5.38;100.00;97374.81;4995628;28;20157;-50
2023/03/29 04:30:32;;;;;;;5.65;1.38;;;6.10;99.90;;;5.42;100.00;97373.91;5002550;28;20033;-48
2023/03/29 04:32:58;;;;;;;4.82;1.20;;;6.10;99.90;;;5.49;100.00;97379.88;4991447;28;20035;-50
2023/03/29 04:35:24;;;;;;;2.47;1.20;;;6.20;99.90;;;5.51;100.00;97373.75;4983201;28;20048;-49
2023/03/29 04:37:51;;;;;;;3.03;1.08;;;6.20;99.90;;;5.54;100.00;97376.31;4997076;28;20059;-48
2023/03/29 04:40:18;;;;;;;2.15;1.30;;;6.20;99.90;;;5.53;100.00;97379.81;5007917;28;20384;-49
2023/03/29 04:42:46;;;;;;;3.58;1.23;;;6.30;99.90;;;5.64;100.00;97389.22;5000258;28;20033;-47
2023/03/29 04:45:16;;;;;;;3.35;1.52;;;6.30;99.90;;;5.63;100.00;97379.66;5006725;28;20040;-47
2023/03/29 04:47:44;;;;;;;5.03;1.23;;;6.40;99.90;;;5.74;100.00;97389.03;5010065;28;20087;-49
2023/03/29 04:50:10;;;;;;;3.47;1.20;;;6.40;99.90;;;5.77;100.00;97380.25;5003465;28;20470;-47
2023/03/29 04:52:36;;;;;;;6.50;1.20;;;6.40;99.90;;;5.78;100.00;97383.72;5005793;28;20033;-49
2023/03/29 04:55:04;;;;;;;1.52;1.05;;;6.50;99.90;;;5.78;100.00;97379.38;5004081;28;20083;-48
2023/03/29 04:57:30;;;;;;;3.10;1.30;;;6.50;99.90;;;5.81;100.00;97379.31;5002358;28;20047;-47
2023/03/29 04:59:56;;;;;;;1.65;1.20;;;6.50;99.90;;;5.82;100.00;97381.03;4996476;28;20037;-50
2023/03/29 05:02:21;;;;;;;2.88;1.10;;;6.50;99.90;;;5.85;100.00;97378.38;4995340;28;20497;-48
2023/03/29 05:04:48;;;;;;;1.70;0.90;;;6.50;99.90;;;5.89;100.00;97381.81;4992323;28;20370;-48
2023/03/29 05:07:14;;;;;;;1.13;1.00;;;6.60;99.90;;;5.91;100.00;97382.63;5001337;28;20025;-52
2023/03/29 05:09:41;;;;;;;1.25;1.00;;;6.50;99.90;;;5.89;100.00;97380.03;5005960;28;20034;-47
2023/03/29 05:12:07;;;;;;;2.92;1.40;;;6.60;99.90;;;5.93;100.00;97375.59;5002354;28;20029;-47
2023/03/29 05:14:33;;;;;;;2.13;1.02;;;6.60;99.90;;;5.96;100.00;97379.94;5005898;28;20805;-49
2023/03/29 05:16:58;;;;;;;2.30;0.95;;;6.60;99.90;;;5.98;100.00;97376.41;5004169;28;20036;-50
2023/03/29 05:19:24;;;;;;;1.98;1.02;;;6.70;99.90;;;6.02;100.00;97374.59;5003590;28;20128;-51
2023/03/29 05:21:51;;;;;;;7.55;1.05;;;6.70;99.90;;;6.04;100.00;97386.75;5000715;28;20596;-47
2023/03/29 05:24:17;;;;;;;1.23;1.00;;;6.70;99.90;;;6.02;100.00;97379.84;5005012;28;20029;-49
2023/03/29 05:26:43;;;;;;;5.75;1.20;;;6.70;99.90;;;6.10;100.00;97385.78;5002175;28;20490;-50
2023/03/29 05:29:11;;;;;;;4.78;1.48;;;6.80;99.90;;;6.00;100.00;97364.16;5007791;28;20032;-47
2023/03/29 05:31:36;;;;;;;2.97;1.20;;;6.80;99.90;;;6.20;100.00;97383.84;5001866;28;20029;-48
2023/03/29 05:34:04;;;;;;;1.40;1.05;;;6.80;99.90;;;6.23;100.00;97383.81;4999962;28;20499;-48
2023/03/29 05:36:30;;;;;;;6.22;1.23;;;6.90;99.90;;;6.25;100.00;97390.72;5005007;28;20029;-49
2023/03/29 05:38:56;;;;;;;1.40;0.90;;;6.90;99.90;;;6.30;100.00;97386.25;5004330;28;20040;-47
2023/03/29 05:41:23;;;;;;;4.38;1.38;;;6.90;99.90;;;6.35;100.00;97380.06;5011085;28;20033;-47
2023/03/29 05:43:49;;;;;;;4.38;1.20;;;7.00;99.90;;;6.38;100.00;97386.09;5004442;28;20219;-50
2023/03/29 05:46:15;;;;;;;1.05;0.88;;;7.00;99.90;;;6.43;100.00;97380.78;4986403;28;20056;-48
2023/03/29 05:48:41;;;;;;;3.95;1.23;;;7.10;99.90;;;6.44;100.00;97386.00;5002075;28;20025;-47
2023/03/29 05:51:08;;;;;;;4.10;0.90;;;7.10;99.90;;;6.48;100.00;97386.78;5005265;28;20119;-54
2023/03/29 05:53:34;;;;;;;4.80;0.93;;;7.20;99.90;;;6.53;100.00;97389.28;5007632;28;20033;-49
2023/03/29 05:56:00;;;;;;;1.73;0.90;;;7.20;99.90;;;6.56;100.00;97386.63;5002900;28;20397;-54
2023/03/29 05:58:27;;;;;;;2.05;0.98;;;7.20;99.90;;;6.53;100.00;97379.66;5007425;28;20080;-51
2023/03/29 06:00:53;;;;;;;1.58;1.00;;;7.20;99.90;;;6.56;100.00;97379.63;5004193;28;20094;-48
2023/03/29 06:03:24;;;;;;;3.38;1.10;;;7.30;99.90;;;6.65;100.00;97389.03;5003452;28;20408;-47
2023/03/29 06:05:57;;;;;;;2.92;1.10;;;7.30;99.90;;;6.66;100.00;97386.38;5004753;28;20041;-47
2023/03/29 06:08:25;;;;;;;6.10;0.93;;;7.30;99.90;;;6.71;100.00;97386.28;5006349;28;20025;-47
2023/03/29 06:11:00;;;;;;;2.28;0.93;;;7.40;99.90;;;6.63;100.00;97362.00;5004966;28;20055;-48
2023/03/29 06:13:30;;;;;;;2.97;1.13;;;7.40;99.90;;;6.81;100.00;97386.94;5008898;28;20114;-46
2023/03/29 06:15:56;;;;;;;3.58;0.93;;;7.40;99.90;;;6.84;100.00;97389.50;4968757;28;20029;-50
2023/03/29 06:18:23;;;;;;;1.80;0.90;;;7.50;99.90;;;6.90;100.00;97392.00;5010077;28;20068;-49
2023/03/29 06:20:50;;;;;;;1.50;0.80;;;7.50;99.90;;;6.98;100.00;97397.03;5021830;28;20033;-47
2023/03/29 06:23:20;;;;;;;2.83;0.80;;;7.60;99.90;;;7.04;100.00;97391.69;5007658;28;20290;-47
2023/03/29 06:25:46;;;;;;;3.50;0.93;;;7.70;99.90;;;7.11;100.00;97401.13;5007569;28;20029;-46
2023/03/29 06:28:13;;;;;;;1.67;1.00;;;7.70;99.90;;;7.19;100.00;97390.47;5002312;28;20399;-46
2023/03/29 06:30:40;;;;;;;6.47;1.08;;;7.80;99.90;;;7.25;100.00;97392.94;5003828;28;20052;-51
2023/03/29 06:33:07;;;;;;;5.68;1.52;;;7.90;99.90;;;7.36;97.77;97401.41;5010081;28;20030;-51
2023/03/29 06:35:35;;;;;;;2.25;1.13;;;8.00;99.90;;;7.48;97.59;97400.22;5011367;28;20044;-51
2023/03/29 06:38:02;;;;;;;2.33;0.98;;;8.10;99.90;;;7.51;88.90;97388.81;5003906;28;20055;-53
2023/03/29 06:40:29;;;;;;;2.35;1.20;;;8.20;99.90;;;7.72;84.24;97401.41;5000709;28;20026;-50
2023/03/29 06:42:56;;;;;;;8.23;1.80;;;8.40;99.90;;;7.91;88.68;97399.16;5005551;28;20025;-52
2023/03/29 06:45:27;;;;;;;2.70;0.90;;;8.50;99.90;;;8.03;81.10;97400.59;5012537;28;20049;-50
2023/03/29 06:47:53;;;;;;;1.95;0.90;;;8.70;99.90;;;8.21;85.05;97393.97;5009672;28;20026;-50
2023/03/29 06:50:19;;;;;;;1.55;0.90;;;8.80;99.90;;;8.35;85.49;97412.84;5012345;28;20110;-50
2023/03/29 06:52:46;;;;;;;2.35;1.08;;;8.90;99.90;;;8.48;87.17;97413.41;5011920;28;20492;-51
2023/03/29 06:55:12;;;;;;;1.70;0.88;;;9.10;99.90;;;8.60;84.75;97415.69;5008749;28;20033;-50
2023/03/29 06:57:39;;;;;;;1.80;0.85;;;9.20;99.90;;;8.77;85.32;97423.09;5010210;28;20048;-51
2023/03/29 07:00:15;;;;;;;1.40;0.80;;;9.30;99.90;;;8.92;85.90;97434.06;5013001;28;20037;-50
2023/03/29 07:02:41;;;;;;;1.65;0.90;;;9.50;99.90;;;9.00;86.02;97436.47;5008338;28;20422;-49
2023/03/29 07:05:12;;;;;;;2.35;0.98;;;9.60;99.90;;;9.08;85.25;97431.81;5010430;28;21003;-47
2023/03/29 07:08:10;;;;;;;1.58;1.00;;;9.70;99.90;;;9.13;84.89;97435.16;5013247;28;20043;-49
2023/03/29 07:10:43;;;;;;;2.88;1.00;;;9.70;99.90;;;9.21;84.76;97437.59;5008011;28;20025;-49
2023/03/29 07:13:13;;;;;;;2.22;1.08;;;9.80;99.90;;;9.30;82.19;97429.41;5013230;28;20060;-47
2023/03/29 07:15:40;;;;;;;3.10;1.20;;;9.90;99.90;;;9.34;78.23;97434.50;5014619;28;20025;-51
2023/03/29 07:18:08;;;;;;;2.40;1.08;;;9.90;99.90;;;9.40;79.50;97437.84;5011415;28;20487;-48
2023/03/29 07:20:34;;;;;;;1.33;0.90;;;10.00;99.90;;;9.45;80.84;97446.47;5016048;28;20480;-46
2023/03/29 07:22:59;;;;;;;2.65;1.10;;;10.00;99.90;;;9.48;81.23;97441.13;5012426;28;20033;-49
2023/03/29 07:25:26;;;;;;;3.05;1.00;;;10.10;99.90;;;9.51;83.06;97435.72;5015308;28;20124;-51
2023/03/29 07:27:54;;;;;;;1.65;0.90;;;10.10;99.90;;;9.59;82.41;97446.91;5008393;28;20051;-51
2023/03/29 07:30:24;;;;;;;2.88;0.90;;;10.20;99.90;;;9.70;82.78;97433.38;5005623;28;20017;-47
2023/03/29 07:32:51;;;;;;;4.07;1.50;;;10.30;99.90;;;9.71;71.27;97443.00;5010653;28;20033;-48
2023/03/29 07:35:17;;;;;;;1.40;0.93;;;10.40;99.90;;;9.82;75.23;97446.16;5013314;28;20032;-49
2023/03/29 07:37:45;;;;;;;1.40;1.10;;;10.40;99.90;;;9.89;75.07;97450.28;5007480;28;20041;-48
2023/03/29 07:40:15;;;;;;;2.28;0.90;;;10.40;99.90;;;9.96;70.18;97460.63;5008027;28;20038;-47
2023/03/29 07:42:47;;;;;;;5.75;0.93;;;10.50;99.90;;;10.02;74.26;97455.16;5011086;28;20061;-47
2023/03/29 07:45:15;;;;;;;2.10;1.00;;;10.60;99.90;;;10.08;75.54;97458.41;5001362;28;20464;-47
2023/03/29 07:47:43;;;;;;;1.80;0.90;;;10.70;99.90;;;10.22;74.20;97457.97;5012793;28;20033;-48
2023/03/29 07:50:10;;;;;;;2.88;1.55;;;10.70;99.90;;;10.36;71.81;97462.78;5008797;28;20037;-47
2023/03/29 07:52:37;;;;;;;2.13;0.98;;;10.90;99.90;;;10.47;73.91;97457.13;5010728;28;20025;-46
2023/03/29 07:55:05;;;;;;;2.25;1.02;;;11.00;99.90;;;10.59;72.31;97469.91;4993344;28;20037;-49
2023/03/29 07:57:30;;;;;;;2.35;1.40;;;11.10;99.90;;;10.64;70.88;97467.06;5007781;28;20033;-51
2023/03/29 07:59:56;;;;;;;4.22;1.98;;;11.20;99.90;;;10.70;67.44;97466.88;5009679;28;20422;-49
2023/03/29 08:02:22;;;;;;;3.92;1.70;;;11.20;99.90;;;10.82;68.73;97468.19;5011787;28;20029;-48
2023/03/29 08:04:48;;;;;;;2.78;1.45;;;11.40;99.90;;;11.04;69.39;97465.63;5007011;28;20113;-49
2023/03/29 08:07:17;;;;;;;2.75;1.30;;;11.50;99.90;;;11.20;69.67;97457.97;5010568;28;20041;-51
2023/03/29 08:09:43;;;;;;;3.85;1.20;;;11.70;99.90;;;11.35;67.97;97460.00;5009117;28;20084;-49
2023/03/29 08:12:09;;;;;;;3.97;1.50;;;11.90;99.90;;;11.43;68.04;97442.09;5011283;28;20216;-47
2023/03/29 08:14:35;;;;;;;4.07;1.33;;;12.00;99.90;;;11.74;68.68;97462.00;5007483;28;20044;-47
2023/03/29 08:17:01;;;;;;;5.75;1.50;;;12.20;99.90;;;11.82;63.45;97454.59;5007032;28;20125;-47
2023/03/29 08:19:27;;;;;;;2.75;1.63;;;12.40;99.90;;;11.91;63.76;97455.19;5036745;22;20091;-36
2023/03/29 08:21:53;;;;;;;2.90;1.60;;;12.40;99.90;;;11.99;65.13;97455.75;5029551;28;20091;-37
2023/03/29 08:24:19;;;;;;;4.95;1.40;;;12.50;99.90;;;11.99;65.83;97451.31;5010579;28;20032;-37
2023/03/29 08:26:44;;;;;;;3.90;1.50;;;12.50;99.90;;;12.03;66.98;97447.59;5028953;28;21390;-35
2023/03/29 08:29:10;;;;;;;4.88;1.80;;;12.50;99.90;;;12.07;65.02;97456.25;5015929;28;20041;-36
2023/03/29 08:31:36;;;;;;;2.83;1.13;;;12.60;99.90;;;12.06;65.27;97456.31;5009877;28;20318;-37
2023/03/29 08:34:02;;;;;;;2.78;1.45;;;12.60;99.90;;;12.01;65.24;97443.31;4998586;28;20125;-36
2023/03/29 08:36:28;;;;;;;8.23;1.52;;;12.50;99.90;;;12.02;64.69;97459.13;5013472;28;20029;-37
2023/03/29 08:38:54;;;;;;;4.82;1.40;;;12.60;99.90;;;12.02;65.33;97452.94;5007605;28;20572;-37
2023/03/29 08:41:49;;;;;;;7.20;1.75;;;12.50;99.90;;;11.95;64.54;97443.56;5006615;28;20053;-37
2023/03/29 08:44:43;;;;;;;2.72;1.30;;;12.50;99.90;;;11.91;65.26;97450.75;4990757;28;20038;-37
2023/03/29 08:48:05;;;;;;;1.95;1.02;;;12.50;99.90;;;11.83;66.56;97455.47;5004526;28;20776;-37
2023/03/29 08:50:39;;;;;;;5.63;1.40;;;12.40;99.90;;;11.75;66.86;97452.28;5009031;28;20048;-37
2023/03/29 08:53:18;;;;;;;4.05;1.50;;;12.30;99.90;;;11.80;67.07;97464.38;5013586;28;20922;-37
2023/03/29 08:55:49;;;;;;;2.10;1.35;;;12.30;99.90;;;11.81;66.96;97452.88;5005192;28;20030;-37
2023/03/29 08:58:20;;;;;;;1.17;1.08;;;12.30;99.90;;;11.94;67.41;97452.41;4981815;28;20316;-37
2023/03/29 09:00:58;;;;;;;3.00;1.42;;;12.40;99.90;;;12.10;65.82;97444.72;4981812;28;20109;-38
2023/03/29 09:03:49;;;;;;;2.67;1.55;;;12.60;99.90;;;12.17;63.38;97444.38;4988313;28;20112;-43
2023/03/29 09:06:18;;;;;;;3.28;1.33;;;12.70;99.90;;;12.34;62.97;97454.22;5012663;28;20041;-36
2023/03/29 09:08:47;;;;;;;2.38;1.27;;;12.80;99.90;;;12.49;62.13;97444.78;4998194;28;20040;-37
2023/03/29 09:12:04;;;;;;;2.45;1.10;;;13.00;99.90;;;12.68;60.92;97447.44;4995394;28;20035;-37
2023/03/29 09:15:18;;;;;;;1.50;1.10;;;13.10;99.90;;;12.95;59.89;97447.97;5010733;28;20045;-37
2023/03/29 09:18:18;;;;;;;3.38;1.17;;;13.40;99.90;;;13.03;56.44;97446.78;5004769;28;20049;-36
2023/03/29 09:21:00;;;;;;;3.65;1.23;;;13.60;99.90;;;13.26;57.18;97443.94;4994744;28;20042;-36
2023/03/29 09:24:14;;;;;;;5.28;1.40;;;13.80;99.90;;;13.51;56.43;97450.72;5004033;28;20029;-37
2023/03/29 09:26:46;;;;;;;3.45;1.20;;;14.00;99.90;;;13.62;56.32;97443.16;5008557;28;20087;-37
2023/03/29 09:29:38;;;;;;;2.97;1.27;;;14.10;99.90;;;13.78;55.13;97442.38;5006027;28;20041;-37
2023/03/29 09:32:15;;;;;;;3.42;1.13;;;14.20;99.90;;;13.82;56.36;97439.50;4991151;28;20037;-37
2023/03/29 09:34:48;;;;;;;2.33;1.20;;;14.30;99.90;;;13.84;53.46;97435.00;4985006;28;20365;-37
2023/03/29 09:37:31;;;;;;;6.97;1.40;;;14.40;99.90;;;13.71;52.47;97421.50;4988976;28;20045;-37
2023/03/29 09:39:56;;;;;;;5.05;1.38;;;14.40;99.90;;;13.87;53.00;97432.19;5008246;28;20029;-37
2023/03/29 09:42:26;;;;;;;1.85;1.10;;;14.40;99.90;;;13.98;52.86;97425.47;4992223;28;20095;-37
2023/03/29 09:45:00;;;;;;;3.63;1.17;;;14.50;99.90;;;14.05;51.78;97422.47;4991104;28;20049;-37
2023/03/29 09:47:46;;;;;;;3.13;1.13;;;14.60;99.90;;;14.15;51.16;97422.00;4987293;28;20029;-37
2023/03/29 09:50:19;;;;;;;1.85;1.08;;;14.60;99.90;;;14.33;49.61;97413.09;5004821;28;20033;-36
2023/03/29 09:52:45;;;;;;;2.35;0.90;;;14.90;99.90;;;14.45;50.03;97407.13;5004855;28;20436;-36
2023/03/29 09:55:16;;;;;;;2.70;1.17;;;15.00;99.10;;;14.54;50.80;97416.41;5001728;28;20030;-36
2023/03/29 09:57:42;;;;;;;1.60;0.98;;;15.10;99.50;;;14.61;50.07;97403.72;5006328;28;20120;-36
2023/03/29 10:00:10;;;;;;;3.38;1.00;;;15.30;99.30;;;14.84;47.98;97413.09;5002172;28;20033;-36
2023/03/29 10:02:36;;;;;;;4.72;1.50;;;15.40;98.20;;;14.99;47.47;97417.56;5013511;28;20037;-36
2023/03/29 10:05:08;;;;;;;2.50;1.02;;;15.50;97.20;;;15.11;47.82;97418.72;5006360;28;20041;-36
2023/03/29 10:07:45;;;;;;;1.73;1.30;;;15.60;97.10;;;15.17;47.19;97426.34;5009120;28;20022;-36
2023/03/29 10:10:31;;;;;;;2.47;1.48;;;15.80;97.30;;;15.34;46.33;97413.91;5012677;28;20037;-36
2023/03/29 10:13:05;;;;;;;2.85;1.40;;;15.80;96.10;;;15.45;46.06;97401.75;5013274;28;20025;-36
2023/03/29 10:15:31;;;;;;;2.25;1.13;;;16.00;95.70;;;15.73;45.91;97404.63;4989485;28;20454;-36
2023/03/29 10:18:02;;;;;;;1.75;1.20;;;16.20;95.40;;;15.89;45.05;97405.47;5010930;28;20029;-36
2023/03/29 10:20:28;;;;;;;3.90;1.30;;;16.40;94.60;;;15.71;43.73;97402.03;5009005;28;20036;-36
2023/03/29 10:22:57;;;;;;;2.15;1.20;;;16.40;93.20;;;15.70;44.57;97404.78;4999193;28;20033;-36
2023/03/29 10:25:31;;;;;;;3.45;1.50;;;16.20;93.70;;;15.60;44.57;97413.28;5000367;28;20064;-37
2023/03/29 10:28:15;;;;;;;3.13;1.60;;;16.10;94.10;;;15.51;46.29;97412.97;5008195;28;20847;-37
2023/03/29 10:30:41;;;;;;;3.65;1.67;;;16.10;95.20;;;15.52;45.84;97399.56;4989569;28;20034;-37
2023/03/29 10:33:18;;;;;;;4.00;1.38;;;16.10;94.90;;;15.49;43.92;97412.19;5008465;28;20110;-38
2023/03/29 10:35:45;;;;;;;3.88;1.30;;;16.00;92.70;;;15.42;44.14;97407.22;5006741;28;20146;-37
2023/03/29 10:38:16;;;;;;;1.63;1.08;;;16.00;93.10;;;15.39;42.71;97402.06;4993309;28;20566;-37
2023/03/29 10:40:47;;;;;;;2.92;1.13;;;16.10;92.00;;;15.46;43.74;97399.94;5007413;28;20064;-37
2023/03/29 10:43:28;;;;;;;3.85;1.45;;;16.10;92.00;;;15.69;44.86;97389.81;5002198;28;20361;-37